Elizabethtown, North Carolina
Current Conditions -  °F | °C
As of 1:55 AM on Monday 24 Nov 2014 (Local Time) from KEYF Reporting Station
Broken Clouds Broken Clouds  
Wind Chill: 65°   Ceiling: 12000
Heat Index: 65°   Visibility: 10mi
Dew Point: 65°   Wind: 3mph
Humidity: 100%   Direction: 160°SSE
Pressure: 29.81"   Gusts: NA
Location:  34.63°N, 78.61°W
Report Text: KEYF 240655Z AUTO 16003KT 10SM BKN120 19/19 A2981 RMK AO2 T01860186
Loading
Personal Weather Stations






























Interactive Weather Map New forecast layout! Learn more

10-Day Weather Forecast

Advertisements
Track Severe Weather on mobile